Strona główna
METAR-TAF:

METAR-TAF

Lotnisko :

Danville, Illinois, Stany Zjednoczone

Szerokość geograficzna: 40-11-58N, Długość geograficzna: 087-35-44W, wysokość: 212 m

Aktualna obserwacja pogody

Raport powstał 22 minut temu, godzina 13:35 UTC
Wiatr 4 kt od wschód
Temperatura 18°C
Wilgotność 77%
Ciśnienie 1024 hPa
Widzialność: 16.1 km
bezchmurnie

METAR: KDNV 241335Z AUTO 09004KT 10SM CLR 18/14 A3024 RMK AO2 T01750140

czas: 08:57 (13:57 UTC)


TAF: brakujący

Obserwacja i prognoza pogody dla ponad 4000 lotnisk (raport METAR i TAF).

Dostępne stacje oznaczono żółtymi i czerwonymi punktami na mapie.

Najedź kursorem aby zobaczyć nazwę stacji.

Kliknij aby zobaczyć obserwacje i prognozy pogody.

Aby zmienić mapę: kliknij na zielony przycisk z czarnym krzyżykiem, aby powiększyć; na zielony przycisk z myślnikiem, aby pomniejszyć; na zielone strzałki, aby przejść do map sąsiednich.


METAR-TAF: